sensor_id;sensor_type;location;lat;lon;timestamp;pressure;altitude;pressure_sealevel;temperature;humidity
62057;BME280;48016;50.284;18.860;2023-03-16T00:01:43;98363.11;;;-0.80;71.31
62057;BME280;48016;50.284;18.860;2023-03-16T00:04:09;98360.62;;;-0.80;71.46
62057;BME280;48016;50.284;18.860;2023-03-16T00:06:36;98359.07;;;-0.79;71.70
62057;BME280;48016;50.284;18.860;2023-03-16T00:09:03;98363.52;;;-0.79;71.81
62057;BME280;48016;50.284;18.860;2023-03-16T00:11:30;98361.96;;;-0.79;71.99
62057;BME280;48016;50.284;18.860;2023-03-16T00:13:56;98363.02;;;-0.79;72.06
62057;BME280;48016;50.284;18.860;2023-03-16T00:16:24;98362.69;;;-0.82;72.24
62057;BME280;48016;50.284;18.860;2023-03-16T00:18:51;98363.67;;;-0.85;72.11
62057;BME280;48016;50.284;18.860;2023-03-16T00:21:18;98363.86;;;-0.87;72.35
62057;BME280;48016;50.284;18.860;2023-03-16T00:23:44;98365.09;;;-0.89;72.18
62057;BME280;48016;50.284;18.860;2023-03-16T00:26:11;98367.55;;;-0.90;72.19
62057;BME280;48016;50.284;18.860;2023-03-16T00:28:38;98371.75;;;-0.92;72.34
62057;BME280;48016;50.284;18.860;2023-03-16T00:31:09;98373.23;;;-0.92;72.65
62057;BME280;48016;50.284;18.860;2023-03-16T00:33:40;98374.88;;;-0.93;72.71
62057;BME280;48016;50.284;18.860;2023-03-16T00:36:10;98374.48;;;-0.94;72.69
62057;BME280;48016;50.284;18.860;2023-03-16T00:38:40;98371.67;;;-0.96;72.81
62057;BME280;48016;50.284;18.860;2023-03-16T00:41:12;98371.65;;;-0.97;72.74
62057;BME280;48016;50.284;18.860;2023-03-16T00:43:41;98373.89;;;-0.98;72.85
62057;BME280;48016;50.284;18.860;2023-03-16T00:46:12;98373.55;;;-0.98;72.96
62057;BME280;48016;50.284;18.860;2023-03-16T00:48:42;98371.27;;;-1.00;72.99
62057;BME280;48016;50.284;18.860;2023-03-16T00:51:12;98375.67;;;-1.03;73.11
62057;BME280;48016;50.284;18.860;2023-03-16T00:53:40;98377.04;;;-1.05;73.46
62057;BME280;48016;50.284;18.860;2023-03-16T00:56:09;98377.73;;;-1.08;73.26
62057;BME280;48016;50.284;18.860;2023-03-16T00:58:39;98376.29;;;-1.08;73.36
62057;BME280;48016;50.284;18.860;2023-03-16T01:01:09;98379.21;;;-1.09;73.77
62057;BME280;48016;50.284;18.860;2023-03-16T01:03:36;98380.31;;;-1.10;73.86
62057;BME280;48016;50.284;18.860;2023-03-16T01:06:08;98380.88;;;-1.09;73.74
62057;BME280;48016;50.284;18.860;2023-03-16T01:08:37;98380.58;;;-1.08;73.80
62057;BME280;48016;50.284;18.860;2023-03-16T01:11:10;98379.91;;;-1.08;73.62
62057;BME280;48016;50.284;18.860;2023-03-16T01:13:38;98378.63;;;-1.10;73.71
62057;BME280;48016;50.284;18.860;2023-03-16T01:16:05;98380.80;;;-1.13;73.86
62057;BME280;48016;50.284;18.860;2023-03-16T01:18:32;98380.30;;;-1.15;74.22
62057;BME280;48016;50.284;18.860;2023-03-16T01:21:04;98384.08;;;-1.16;74.32
62057;BME280;48016;50.284;18.860;2023-03-16T01:23:31;98377.65;;;-1.16;74.29
62057;BME280;48016;50.284;18.860;2023-03-16T01:25:59;98383.88;;;-1.20;74.29
62057;BME280;48016;50.284;18.860;2023-03-16T01:28:29;98385.33;;;-1.23;74.13
62057;BME280;48016;50.284;18.860;2023-03-16T01:31:15;98387.64;;;-1.26;74.29
62057;BME280;48016;50.284;18.860;2023-03-16T01:33:43;98387.77;;;-1.27;74.25
62057;BME280;48016;50.284;18.860;2023-03-16T01:36:13;98387.98;;;-1.28;74.31
62057;BME280;48016;50.284;18.860;2023-03-16T01:38:40;98388.51;;;-1.31;74.63
62057;BME280;48016;50.284;18.860;2023-03-16T01:41:08;98389.16;;;-1.35;74.89
62057;BME280;48016;50.284;18.860;2023-03-16T01:43:37;98391.73;;;-1.38;74.90
62057;BME280;48016;50.284;18.860;2023-03-16T01:51:17;98399.88;;;-1.41;74.91
62057;BME280;48016;50.284;18.860;2023-03-16T01:53:51;98397.67;;;-1.43;75.03
62057;BME280;48016;50.284;18.860;2023-03-16T01:56:25;98395.32;;;-1.43;75.01
62057;BME280;48016;50.284;18.860;2023-03-16T01:58:54;98397.38;;;-1.44;75.07
62057;BME280;48016;50.284;18.860;2023-03-16T02:01:26;98396.09;;;-1.45;75.06
62057;BME280;48016;50.284;18.860;2023-03-16T02:04:03;98397.27;;;-1.47;75.13
62057;BME280;48016;50.284;18.860;2023-03-16T02:06:33;98395.34;;;-1.52;75.23
62057;BME280;48016;50.284;18.860;2023-03-16T02:09:01;98398.10;;;-1.54;75.31
62057;BME280;48016;50.284;18.860;2023-03-16T02:11:29;98401.45;;;-1.54;75.42
62057;BME280;48016;50.284;18.860;2023-03-16T02:13:57;98406.51;;;-1.55;75.42
62057;BME280;48016;50.284;18.860;2023-03-16T02:16:27;98409.35;;;-1.55;75.24
62057;BME280;48016;50.284;18.860;2023-03-16T02:18:54;98411.61;;;-1.57;75.46
62057;BME280;48016;50.284;18.860;2023-03-16T02:21:39;98413.27;;;-1.59;75.69
62057;BME280;48016;50.284;18.860;2023-03-16T02:24:08;98417.93;;;-1.62;75.93
62057;BME280;48016;50.284;18.860;2023-03-16T02:27:08;98424.98;;;-1.65;75.93
62057;BME280;48016;50.284;18.860;2023-03-16T02:29:54;98428.44;;;-1.68;76.07
62057;BME280;48016;50.284;18.860;2023-03-16T02:32:24;98431.58;;;-1.72;76.33
62057;BME280;48016;50.284;18.860;2023-03-16T02:34:54;98437.48;;;-1.74;76.24
62057;BME280;48016;50.284;18.860;2023-03-16T02:37:21;98441.21;;;-1.76;76.24
62057;BME280;48016;50.284;18.860;2023-03-16T02:39:48;98445.16;;;-1.76;76.06
62057;BME280;48016;50.284;18.860;2023-03-16T02:42:18;98450.79;;;-1.76;76.00
62057;BME280;48016;50.284;18.860;2023-03-16T02:44:55;98454.95;;;-1.76;76.06
62057;BME280;48016;50.284;18.860;2023-03-16T02:47:33;98454.84;;;-1.75;76.17
62057;BME280;48016;50.284;18.860;2023-03-16T02:50:02;98459.45;;;-1.73;76.11
62057;BME280;48016;50.284;18.860;2023-03-16T02:52:33;98460.81;;;-1.74;76.33
62057;BME280;48016;50.284;18.860;2023-03-16T02:55:00;98465.20;;;-1.77;76.41
62057;BME280;48016;50.284;18.860;2023-03-16T02:57:27;98471.85;;;-1.78;76.61
62057;BME280;48016;50.284;18.860;2023-03-16T02:59:54;98474.22;;;-1.82;76.61
62057;BME280;48016;50.284;18.860;2023-03-16T03:02:21;98477.25;;;-1.84;76.61
62057;BME280;48016;50.284;18.860;2023-03-16T03:04:47;98477.33;;;-1.86;76.59
62057;BME280;48016;50.284;18.860;2023-03-16T03:07:14;98484.71;;;-1.91;76.53
62057;BME280;48016;50.284;18.860;2023-03-16T03:09:41;98485.56;;;-1.95;76.53
62057;BME280;48016;50.284;18.860;2023-03-16T03:12:10;98486.63;;;-1.98;76.41
62057;BME280;48016;50.284;18.860;2023-03-16T03:14:36;98485.84;;;-2.01;76.47
62057;BME280;48016;50.284;18.860;2023-03-16T03:17:08;98487.74;;;-2.02;76.35
62057;BME280;48016;50.284;18.860;2023-03-16T03:19:35;98488.80;;;-2.05;76.52
62057;BME280;48016;50.284;18.860;2023-03-16T03:22:03;98491.04;;;-2.08;76.83
62057;BME280;48016;50.284;18.860;2023-03-16T03:24:32;98492.30;;;-2.08;76.75
62057;BME280;48016;50.284;18.860;2023-03-16T03:26:59;98492.60;;;-2.09;76.71
62057;BME280;48016;50.284;18.860;2023-03-16T03:29:26;98498.20;;;-2.10;76.84
62057;BME280;48016;50.284;18.860;2023-03-16T03:32:00;98498.88;;;-2.10;76.72
62057;BME280;48016;50.284;18.860;2023-03-16T03:34:27;98499.08;;;-2.10;76.66
62057;BME280;48016;50.284;18.860;2023-03-16T03:36:55;98505.05;;;-2.13;76.85
62057;BME280;48016;50.284;18.860;2023-03-16T03:39:22;98513.13;;;-2.13;76.90
62057;BME280;48016;50.284;18.860;2023-03-16T03:41:49;98514.92;;;-2.13;76.89
62057;BME280;48016;50.284;18.860;2023-03-16T03:44:20;98516.34;;;-2.15;77.28
62057;BME280;48016;50.284;18.860;2023-03-16T03:46:47;98518.70;;;-2.17;77.32
62057;BME280;48016;50.284;18.860;2023-03-16T03:49:14;98523.23;;;-2.18;77.28
62057;BME280;48016;50.284;18.860;2023-03-16T03:51:42;98521.21;;;-2.17;77.09
62057;BME280;48016;50.284;18.860;2023-03-16T03:54:09;98523.60;;;-2.15;77.06
62057;BME280;48016;50.284;18.860;2023-03-16T03:56:36;98523.36;;;-2.15;77.19
62057;BME280;48016;50.284;18.860;2023-03-16T03:59:02;98526.91;;;-2.13;77.42
62057;BME280;48016;50.284;18.860;2023-03-16T04:01:29;98525.61;;;-2.12;77.50
62057;BME280;48016;50.284;18.860;2023-03-16T04:03:56;98530.34;;;-2.12;77.76
62057;BME280;48016;50.284;18.860;2023-03-16T04:06:22;98528.42;;;-2.10;77.83
62057;BME280;48016;50.284;18.860;2023-03-16T04:08:49;98539.39;;;-2.11;77.97
62057;BME280;48016;50.284;18.860;2023-03-16T04:11:16;98538.23;;;-2.10;77.84
62057;BME280;48016;50.284;18.860;2023-03-16T04:13:43;98533.91;;;-2.12;78.03
62057;BME280;48016;50.284;18.860;2023-03-16T04:16:10;98532.70;;;-2.14;78.11
62057;BME280;48016;50.284;18.860;2023-03-16T04:18:36;98532.60;;;-2.13;77.92
62057;BME280;48016;50.284;18.860;2023-03-16T04:21:09;98533.09;;;-2.13;77.57
62057;BME280;48016;50.284;18.860;2023-03-16T04:23:38;98535.87;;;-2.12;77.63
62057;BME280;48016;50.284;18.860;2023-03-16T04:26:04;98533.89;;;-2.12;77.65
62057;BME280;48016;50.284;18.860;2023-03-16T04:28:31;98534.58;;;-2.12;77.77
62057;BME280;48016;50.284;18.860;2023-03-16T04:31:06;98538.45;;;-2.13;77.81
62057;BME280;48016;50.284;18.860;2023-03-16T04:33:34;98537.17;;;-2.18;77.89
62057;BME280;48016;50.284;18.860;2023-03-16T04:36:03;98539.34;;;-2.20;78.05
62057;BME280;48016;50.284;18.860;2023-03-16T04:38:31;98539.47;;;-2.23;77.97
62057;BME280;48016;50.284;18.860;2023-03-16T04:41:03;98538.70;;;-2.25;78.11
62057;BME280;48016;50.284;18.860;2023-03-16T04:43:30;98544.90;;;-2.29;77.88
62057;BME280;48016;50.284;18.860;2023-03-16T04:46:00;98542.83;;;-2.33;77.93
62057;BME280;48016;50.284;18.860;2023-03-16T04:48:30;98544.94;;;-2.34;77.87
62057;BME280;48016;50.284;18.860;2023-03-16T04:51:00;98548.92;;;-2.37;77.60
62057;BME280;48016;50.284;18.860;2023-03-16T04:53:30;98551.59;;;-2.37;77.74
62057;BME280;48016;50.284;18.860;2023-03-16T04:55:58;98557.68;;;-2.38;77.66
62057;BME280;48016;50.284;18.860;2023-03-16T04:58:26;98556.80;;;-2.39;77.61
62057;BME280;48016;50.284;18.860;2023-03-16T05:00:53;98561.52;;;-2.39;77.72
62057;BME280;48016;50.284;18.860;2023-03-16T05:03:23;98557.23;;;-2.37;77.99
62057;BME280;48016;50.284;18.860;2023-03-16T05:05:50;98559.52;;;-2.35;78.01
62057;BME280;48016;50.284;18.860;2023-03-16T05:08:17;98562.15;;;-2.37;77.91
62057;BME280;48016;50.284;18.860;2023-03-16T05:10:43;98567.02;;;-2.41;77.74
62057;BME280;48016;50.284;18.860;2023-03-16T05:13:13;98574.01;;;-2.43;78.03
62057;BME280;48016;50.284;18.860;2023-03-16T05:15:39;98576.29;;;-2.43;77.99
62057;BME280;48016;50.284;18.860;2023-03-16T05:18:06;98579.13;;;-2.43;77.97
62057;BME280;48016;50.284;18.860;2023-03-16T05:20:33;98579.27;;;-2.43;78.01
62057;BME280;48016;50.284;18.860;2023-03-16T05:23:00;98584.55;;;-2.41;78.11
62057;BME280;48016;50.284;18.860;2023-03-16T05:25:27;98587.08;;;-2.39;77.97
62057;BME280;48016;50.284;18.860;2023-03-16T05:27:53;98586.41;;;-2.31;78.14
62057;BME280;48016;50.284;18.860;2023-03-16T05:30:20;98586.90;;;-2.22;78.09
62057;BME280;48016;50.284;18.860;2023-03-16T05:32:47;98588.69;;;-2.14;77.98
62057;BME280;48016;50.284;18.860;2023-03-16T05:35:14;98589.65;;;-2.03;78.24
62057;BME280;48016;50.284;18.860;2023-03-16T05:37:41;98594.36;;;-1.93;78.39
62057;BME280;48016;50.284;18.860;2023-03-16T05:40:12;98593.72;;;-1.85;78.36
62057;BME280;48016;50.284;18.860;2023-03-16T05:42:48;98591.02;;;-1.74;78.22
62057;BME280;48016;50.284;18.860;2023-03-16T05:45:16;98596.20;;;-1.63;78.59
62057;BME280;48016;50.284;18.860;2023-03-16T05:47:43;98596.05;;;-1.48;78.49
62057;BME280;48016;50.284;18.860;2023-03-16T05:50:11;98601.96;;;-1.32;78.49
62057;BME280;48016;50.284;18.860;2023-03-16T05:52:38;98603.27;;;-1.14;78.45
62057;BME280;48016;50.284;18.860;2023-03-16T05:55:07;98611.70;;;-0.97;78.20
62057;BME280;48016;50.284;18.860;2023-03-16T05:57:35;98610.17;;;-0.78;78.06
62057;BME280;48016;50.284;18.860;2023-03-16T06:00:05;98611.54;;;-0.61;78.04
62057;BME280;48016;50.284;18.860;2023-03-16T06:02:48;98613.55;;;-0.41;77.93
62057;BME280;48016;50.284;18.860;2023-03-16T06:05:17;98614.61;;;-0.26;77.99
62057;BME280;48016;50.284;18.860;2023-03-16T06:07:44;98617.06;;;-0.09;77.96
62057;BME280;48016;50.284;18.860;2023-03-16T06:10:11;98617.62;;;0.09;77.73
62057;BME280;48016;50.284;18.860;2023-03-16T06:12:39;98623.02;;;0.28;77.21
62057;BME280;48016;50.284;18.860;2023-03-16T06:15:07;98629.76;;;0.49;76.99
62057;BME280;48016;50.284;18.860;2023-03-16T06:17:35;98634.84;;;0.69;76.50
62057;BME280;48016;50.284;18.860;2023-03-16T06:20:03;98639.53;;;0.93;76.26
62057;BME280;48016;50.284;18.860;2023-03-16T06:22:40;98645.64;;;1.18;75.65
62057;BME280;48016;50.284;18.860;2023-03-16T06:25:09;98648.62;;;1.44;75.48
62057;BME280;48016;50.284;18.860;2023-03-16T06:27:37;98643.60;;;1.78;75.11
62057;BME280;48016;50.284;18.860;2023-03-16T06:30:11;98646.81;;;2.16;74.69
62057;BME280;48016;50.284;18.860;2023-03-16T06:32:38;98647.27;;;2.47;74.65
62057;BME280;48016;50.284;18.860;2023-03-16T06:35:08;98649.46;;;2.50;74.08
62057;BME280;48016;50.284;18.860;2023-03-16T06:37:35;98647.59;;;2.52;73.86
62057;BME280;48016;50.284;18.860;2023-03-16T06:40:02;98650.78;;;2.57;73.27
62057;BME280;48016;50.284;18.860;2023-03-16T06:42:29;98653.10;;;2.58;72.82
62057;BME280;48016;50.284;18.860;2023-03-16T06:44:56;98656.86;;;2.56;72.61
62057;BME280;48016;50.284;18.860;2023-03-16T06:47:23;98657.90;;;2.52;72.39
62057;BME280;48016;50.284;18.860;2023-03-16T06:49:51;98657.88;;;2.44;71.91
62057;BME280;48016;50.284;18.860;2023-03-16T06:52:21;98658.88;;;2.45;72.14
62057;BME280;48016;50.284;18.860;2023-03-16T06:54:48;98661.73;;;2.44;71.93
62057;BME280;48016;50.284;18.860;2023-03-16T06:57:14;98664.10;;;2.41;71.53
62057;BME280;48016;50.284;18.860;2023-03-16T06:59:41;98672.38;;;2.41;71.58
62057;BME280;48016;50.284;18.860;2023-03-16T07:02:11;98670.41;;;2.41;71.50
62057;BME280;48016;50.284;18.860;2023-03-16T07:04:40;98673.09;;;2.37;71.41
62057;BME280;48016;50.284;18.860;2023-03-16T07:07:07;98675.20;;;2.33;71.53
62057;BME280;48016;50.284;18.860;2023-03-16T07:09:35;98677.45;;;2.27;71.37
62057;BME280;48016;50.284;18.860;2023-03-16T07:12:02;98679.25;;;2.27;71.42
62057;BME280;48016;50.284;18.860;2023-03-16T07:14:29;98678.91;;;2.30;71.53
62057;BME280;48016;50.284;18.860;2023-03-16T07:16:56;98682.86;;;2.41;71.76
62057;BME280;48016;50.284;18.860;2023-03-16T07:19:23;98688.54;;;2.59;71.71
62057;BME280;48016;50.284;18.860;2023-03-16T07:21:50;98688.40;;;2.67;71.86
62057;BME280;48016;50.284;18.860;2023-03-16T07:24:17;98688.48;;;2.68;72.18
62057;BME280;48016;50.284;18.860;2023-03-16T07:26:44;98689.00;;;2.69;71.80
62057;BME280;48016;50.284;18.860;2023-03-16T07:29:12;98691.82;;;2.69;71.47
62057;BME280;48016;50.284;18.860;2023-03-16T07:31:39;98687.79;;;2.68;71.19
62057;BME280;48016;50.284;18.860;2023-03-16T07:34:06;98686.67;;;2.67;71.22
62057;BME280;48016;50.284;18.860;2023-03-16T07:36:33;98692.90;;;2.67;71.05
62057;BME280;48016;50.284;18.860;2023-03-16T07:39:00;98692.64;;;2.63;70.79
62057;BME280;48016;50.284;18.860;2023-03-16T07:41:26;98697.42;;;2.61;70.70
62057;BME280;48016;50.284;18.860;2023-03-16T07:43:53;98694.09;;;2.55;70.39
62057;BME280;48016;50.284;18.860;2023-03-16T07:46:20;98699.12;;;2.52;70.32
62057;BME280;48016;50.284;18.860;2023-03-16T07:48:47;98698.06;;;2.48;70.33
62057;BME280;48016;50.284;18.860;2023-03-16T07:51:14;98699.63;;;2.43;70.34
62057;BME280;48016;50.284;18.860;2023-03-16T07:53:41;98701.23;;;2.43;70.69
62057;BME280;48016;50.284;18.860;2023-03-16T07:56:08;98698.00;;;2.51;70.62
62057;BME280;48016;50.284;18.860;2023-03-16T07:58:35;98695.87;;;2.66;70.42
62057;BME280;48016;50.284;18.860;2023-03-16T08:01:02;98701.98;;;2.80;70.45
62057;BME280;48016;50.284;18.860;2023-03-16T08:03:29;98701.98;;;2.83;70.39
62057;BME280;48016;50.284;18.860;2023-03-16T08:05:58;98706.98;;;2.87;70.19
62057;BME280;48016;50.284;18.860;2023-03-16T08:08:25;98708.48;;;2.96;69.92
62057;BME280;48016;50.284;18.860;2023-03-16T08:10:52;98712.73;;;3.00;69.71
62057;BME280;48016;50.284;18.860;2023-03-16T08:13:19;98713.27;;;3.22;70.04
62057;BME280;48016;50.284;18.860;2023-03-16T08:15:49;98714.23;;;3.52;70.12
62057;BME280;48016;50.284;18.860;2023-03-16T08:18:24;98713.39;;;3.79;70.26
62057;BME280;48016;50.284;18.860;2023-03-16T08:20:52;98716.26;;;4.07;70.03
62057;BME280;48016;50.284;18.860;2023-03-16T08:23:20;98715.96;;;4.33;69.18
62057;BME280;48016;50.284;18.860;2023-03-16T08:25:51;98719.69;;;4.59;69.22
62057;BME280;48016;50.284;18.860;2023-03-16T08:28:19;98722.82;;;4.82;68.65
62057;BME280;48016;50.284;18.860;2023-03-16T08:30:54;98718.84;;;4.99;67.99
62057;BME280;48016;50.284;18.860;2023-03-16T08:33:21;98717.59;;;5.04;67.61
62057;BME280;48016;50.284;18.860;2023-03-16T08:35:48;98718.86;;;5.12;67.21
62057;BME280;48016;50.284;18.860;2023-03-16T08:38:16;98723.06;;;5.25;67.02
62057;BME280;48016;50.284;18.860;2023-03-16T08:40:45;98723.41;;;5.34;66.58
62057;BME280;48016;50.284;18.860;2023-03-16T08:43:14;98717.90;;;5.46;65.67
62057;BME280;48016;50.284;18.860;2023-03-16T08:45:43;98721.52;;;5.60;65.65
62057;BME280;48016;50.284;18.860;2023-03-16T08:48:10;98720.12;;;5.69;65.71
62057;BME280;48016;50.284;18.860;2023-03-16T08:50:41;98722.45;;;5.75;65.04
62057;BME280;48016;50.284;18.860;2023-03-16T08:53:12;98725.23;;;5.64;64.43
62057;BME280;48016;50.284;18.860;2023-03-16T08:55:40;98724.86;;;5.51;64.17
62057;BME280;48016;50.284;18.860;2023-03-16T08:58:08;98733.31;;;5.51;64.24
62057;BME280;48016;50.284;18.860;2023-03-16T09:00:36;98733.02;;;5.39;63.26
62057;BME280;48016;50.284;18.860;2023-03-16T09:03:04;98727.68;;;5.29;63.61
62057;BME280;48016;50.284;18.860;2023-03-16T09:05:32;98731.30;;;5.33;63.56
62057;BME280;48016;50.284;18.860;2023-03-16T09:07:59;98729.80;;;5.40;63.67
62057;BME280;48016;50.284;18.860;2023-03-16T09:10:27;98734.08;;;5.53;63.29
62057;BME280;48016;50.284;18.860;2023-03-16T09:12:54;98732.33;;;5.50;62.24
62057;BME280;48016;50.284;18.860;2023-03-16T09:15:21;98734.80;;;5.35;62.35
62057;BME280;48016;50.284;18.860;2023-03-16T09:17:47;98737.55;;;5.21;61.62
62057;BME280;48016;50.284;18.860;2023-03-16T09:20:16;98739.52;;;5.17;61.74
62057;BME280;48016;50.284;18.860;2023-03-16T09:22:44;98737.02;;;5.25;62.02
62057;BME280;48016;50.284;18.860;2023-03-16T09:25:11;98741.05;;;5.26;61.83
62057;BME280;48016;50.284;18.860;2023-03-16T09:27:38;98743.40;;;5.27;61.78
62057;BME280;48016;50.284;18.860;2023-03-16T09:30:06;98741.74;;;5.35;61.13
62057;BME280;48016;50.284;18.860;2023-03-16T09:32:34;98742.46;;;5.39;61.59
62057;BME280;48016;50.284;18.860;2023-03-16T09:35:04;98740.90;;;5.22;61.07
62057;BME280;48016;50.284;18.860;2023-03-16T09:37:32;98744.40;;;4.91;60.89
62057;BME280;48016;50.284;18.860;2023-03-16T09:39:59;98746.02;;;4.67;61.53
62057;BME280;48016;50.284;18.860;2023-03-16T09:42:35;98746.96;;;4.69;61.34
62057;BME280;48016;50.284;18.860;2023-03-16T09:48:09;98754.26;;;4.80;61.21
62057;BME280;48016;50.284;18.860;2023-03-16T09:50:38;98754.42;;;4.82;60.85
62057;BME280;48016;50.284;18.860;2023-03-16T09:53:29;98747.23;;;4.97;60.86
62057;BME280;48016;50.284;18.860;2023-03-16T09:56:09;98748.33;;;5.19;60.60
62057;BME280;48016;50.284;18.860;2023-03-16T09:58:36;98749.41;;;5.31;59.91
62057;BME280;48016;50.284;18.860;2023-03-16T10:06:25;98754.48;;;5.47;59.65
62057;BME280;48016;50.284;18.860;2023-03-16T10:11:42;98757.29;;;5.84;59.42
62057;BME280;48016;50.284;18.860;2023-03-16T10:17:17;98757.03;;;6.10;58.68
62057;BME280;48016;50.284;18.860;2023-03-16T10:19:58;98758.91;;;5.99;58.06
62057;BME280;48016;50.284;18.860;2023-03-16T10:22:51;98760.20;;;6.18;58.33
62057;BME280;48016;50.284;18.860;2023-03-16T10:25:45;98768.85;;;6.39;58.23
62057;BME280;48016;50.284;18.860;2023-03-16T10:28:15;98769.34;;;6.31;57.11
62057;BME280;48016;50.284;18.860;2023-03-16T10:30:59;98767.62;;;6.36;56.67
62057;BME280;48016;50.284;18.860;2023-03-16T10:33:30;98772.52;;;6.45;57.39
62057;BME280;48016;50.284;18.860;2023-03-16T10:36:09;98769.42;;;6.32;56.72
62057;BME280;48016;50.284;18.860;2023-03-16T10:39:04;98769.07;;;6.19;56.06
62057;BME280;48016;50.284;18.860;2023-03-16T10:41:37;98767.39;;;6.20;56.04
62057;BME280;48016;50.284;18.860;2023-03-16T10:44:15;98767.44;;;6.17;55.84
62057;BME280;48016;50.284;18.860;2023-03-16T10:47:16;98768.23;;;6.20;55.00
62057;BME280;48016;50.284;18.860;2023-03-16T10:49:44;98762.93;;;6.20;54.62
62057;BME280;48016;50.284;18.860;2023-03-16T10:55:30;98766.79;;;6.30;54.29
62057;BME280;48016;50.284;18.860;2023-03-16T10:58:07;98764.57;;;6.27;53.44
62057;BME280;48016;50.284;18.860;2023-03-16T11:00:37;98761.74;;;6.29;53.64
62057;BME280;48016;50.284;18.860;2023-03-16T11:03:27;98762.90;;;6.25;53.57
62057;BME280;48016;50.284;18.860;2023-03-16T11:06:03;98763.10;;;6.24;53.49
62057;BME280;48016;50.284;18.860;2023-03-16T11:08:38;98758.39;;;6.24;52.84
62057;BME280;48016;50.284;18.860;2023-03-16T11:11:09;98754.59;;;6.38;52.80
62057;BME280;48016;50.284;18.860;2023-03-16T11:13:45;98747.73;;;6.57;52.70
62057;BME280;48016;50.284;18.860;2023-03-16T11:19:48;98750.59;;;6.82;51.92
62057;BME280;48016;50.284;18.860;2023-03-16T11:23:05;98752.02;;;6.78;52.04
62057;BME280;48016;50.284;18.860;2023-03-16T11:25:44;98757.82;;;6.72;52.10
62057;BME280;48016;50.284;18.860;2023-03-16T11:28:16;98755.80;;;6.76;51.81
62057;BME280;48016;50.284;18.860;2023-03-16T11:33:54;98749.46;;;6.88;51.61
62057;BME280;48016;50.284;18.860;2023-03-16T11:36:46;98746.83;;;6.87;51.52
62057;BME280;48016;50.284;18.860;2023-03-16T11:39:30;98746.79;;;6.86;51.45
62057;BME280;48016;50.284;18.860;2023-03-16T11:57:36;98744.98;;;7.03;50.15
62057;BME280;48016;50.284;18.860;2023-03-16T12:06:11;98751.73;;;6.80;50.14
62057;BME280;48016;50.284;18.860;2023-03-16T12:11:26;98753.55;;;6.73;49.78
62057;BME280;48016;50.284;18.860;2023-03-16T12:14:42;98745.65;;;6.70;49.91
62057;BME280;48016;50.284;18.860;2023-03-16T12:17:19;98742.84;;;6.69;49.43
62057;BME280;48016;50.284;18.860;2023-03-16T12:19:53;98742.20;;;6.76;49.55
62057;BME280;48016;50.284;18.860;2023-03-16T12:22:30;98744.69;;;6.80;49.72
62057;BME280;48016;50.284;18.860;2023-03-16T12:24:59;98741.56;;;6.78;49.30
62057;BME280;48016;50.284;18.860;2023-03-16T12:27:35;98739.04;;;6.88;49.76
62057;BME280;48016;50.284;18.860;2023-03-16T12:39:01;98727.91;;;7.43;47.97
62057;BME280;48016;50.284;18.860;2023-03-16T12:44:47;98723.60;;;7.39;47.31
62057;BME280;48016;50.284;18.860;2023-03-16T12:50:20;98725.33;;;7.52;47.14
62057;BME280;48016;50.284;18.860;2023-03-16T12:52:49;98722.73;;;7.59;46.94
62057;BME280;48016;50.284;18.860;2023-03-16T12:58:07;98726.30;;;7.54;45.10
62057;BME280;48016;50.284;18.860;2023-03-16T13:03:43;98730.42;;;7.50;43.97
62057;BME280;48016;50.284;18.860;2023-03-16T13:06:23;98724.28;;;7.57;44.05
62057;BME280;48016;50.284;18.860;2023-03-16T13:08:54;98728.85;;;7.62;44.23
62057;BME280;48016;50.284;18.860;2023-03-16T13:11:23;98726.37;;;7.55;43.41
62057;BME280;48016;50.284;18.860;2023-03-16T13:17:24;98737.16;;;7.45;43.68
62057;BME280;48016;50.284;18.860;2023-03-16T13:22:30;98733.20;;;7.40;44.13
62057;BME280;48016;50.284;18.860;2023-03-16T13:25:44;98737.96;;;7.39;43.94
62057;BME280;48016;50.284;18.860;2023-03-16T13:28:27;98733.56;;;7.25;43.22
62057;BME280;48016;50.284;18.860;2023-03-16T13:30:55;98736.45;;;7.19;43.25
62057;BME280;48016;50.284;18.860;2023-03-16T13:33:25;98735.46;;;7.18;44.05
62057;BME280;48016;50.284;18.860;2023-03-16T13:35:59;98733.90;;;7.24;44.17
62057;BME280;48016;50.284;18.860;2023-03-16T13:38:27;98730.45;;;7.27;44.22
62057;BME280;48016;50.284;18.860;2023-03-16T13:41:02;98733.98;;;7.32;44.39
62057;BME280;48016;50.284;18.860;2023-03-16T13:43:30;98731.25;;;7.34;44.07
62057;BME280;48016;50.284;18.860;2023-03-16T13:45:58;98731.14;;;7.27;43.08
62057;BME280;48016;50.284;18.860;2023-03-16T13:48:26;98726.86;;;7.21;43.64
62057;BME280;48016;50.284;18.860;2023-03-16T13:50:55;98725.27;;;7.18;43.63
62057;BME280;48016;50.284;18.860;2023-03-16T13:53:27;98726.20;;;7.16;43.31
62057;BME280;48016;50.284;18.860;2023-03-16T13:55:56;98724.20;;;7.06;43.05
62057;BME280;48016;50.284;18.860;2023-03-16T13:58:29;98720.28;;;7.00;43.27
62057;BME280;48016;50.284;18.860;2023-03-16T14:01:01;98722.33;;;7.02;43.15
62057;BME280;48016;50.284;18.860;2023-03-16T14:03:34;98720.73;;;7.00;43.10
62057;BME280;48016;50.284;18.860;2023-03-16T14:06:03;98723.53;;;6.98;43.49
62057;BME280;48016;50.284;18.860;2023-03-16T14:08:31;98729.33;;;6.97;43.43
62057;BME280;48016;50.284;18.860;2023-03-16T14:10:59;98730.05;;;7.00;43.47
62057;BME280;48016;50.284;18.860;2023-03-16T14:18:45;98727.39;;;7.10;43.88
62057;BME280;48016;50.284;18.860;2023-03-16T14:21:16;98729.45;;;7.15;43.88
62057;BME280;48016;50.284;18.860;2023-03-16T14:23:47;98729.11;;;7.19;43.52
62057;BME280;48016;50.284;18.860;2023-03-16T14:26:18;98729.70;;;7.18;43.60
62057;BME280;48016;50.284;18.860;2023-03-16T14:29:19;98731.02;;;7.11;43.68
62057;BME280;48016;50.284;18.860;2023-03-16T14:31:47;98726.77;;;6.96;43.19
62057;BME280;48016;50.284;18.860;2023-03-16T14:34:36;98726.02;;;6.88;43.42
62057;BME280;48016;50.284;18.860;2023-03-16T14:37:07;98724.98;;;6.80;43.61
62057;BME280;48016;50.284;18.860;2023-03-16T14:39:34;98727.69;;;6.72;43.73